Pays
Station

 

Conditions  météo  pour  Caernarfon  -  Royaume-Uni    Royaume-Uni

  
16 °C
    
 
 

METAR pour Caernarfon :

EGCK 221550Z 18013KT CAVOK 16/06 Q1029

 

Voici le bulletin pour Caernarfon - Royaume-Uni.
 
Le bulletin a été fait il y a 26 minutes, à 15:50 UTC .
Le vent soufflait à la vitesse de 6.7 mètres par seconde de Sud (180°).
 
La température était de 16 °C, avec un point de rosée à 6 °C.
La pression atmosphérique était de 1029 hPa.
L'humidité relative était de 51.4%.
 
Il y avait pas de nuages en-dessous de 1500 mètres et pas de cumulonimbus.
 
La visibilité globale était de supérieure à 10 kilomètres.
 

 
 
 

Pays :   A   B   C   D   E   F   G   H   I   J   K   L   M   N   O   P   Q   R   S   T   U   V   W   Y   Z

 

Partenaires :  Info Météo avec Met'info
Météo Marine avec MeteoMarine.net
Infos Site  |  Infos Légales  |  Crédits  |  Confidentialité
Contactez-nous  |  Ajouter aux favoris
© 2013-2019 METAR - Tous droits réservés